| time (UTC) | temp F | wind direction | speed MPH | gust MPH | rain 1hr in | rain 24hr in | rain mn in | humidity % | barometer mb |
| 20260831225401 | 68 | 288 | 1.0 | 3.0 | 0.01 | 0.30 | 0.31 | 97 | 1017.4 |
| 20260831224902 | 68 | 288 | 1.0 | 5.0 | 0.01 | 0.30 | 0.31 | 97 | 1017.3 |
| 20260831224401 | 68 | 288 | 1.0 | 5.0 | 0.01 | 0.30 | 0.31 | 97 | 1017.4 |
| 20260831223900 | 68 | 288 | 1.0 | 4.0 | 0.02 | 0.30 | 0.31 | 97 | 1017.4 |
| 20260831223401 | 68 | 288 | 2.0 | 4.0 | 0.01 | 0.30 | 0.30 | 97 | 1017.5 |
| 20260831223123 | 68 | 288 | 2.0 | 8.0 | 0.02 | 0.30 | 0.30 | 97 | 1017.5 |
| 20260831222621 | 68 | 288 | 2.0 | 9.0 | 0.02 | 0.30 | 0.30 | 97 | 1017.5 |
| 20260831221902 | 68 | 288 | 2.0 | 9.0 | 0.03 | 0.30 | 0.30 | 97 | 1017.5 |
| 20260831221619 | 68 | 288 | 1.0 | 5.0 | 0.05 | 0.30 | 0.30 | 97 | 1017.5 |
| 20260831220403 | 68 | 288 | 1.0 | 2.0 | 0.09 | 0.30 | 0.30 | 97 | 1017.6 |
| 20260831220134 | 68 | 288 | 1.0 | 4.0 | 0.10 | 0.20 | 0.30 | 97 | 1017.7 |
| 20260831200401 | 69 | 288 | 3.0 | 8.0 | 0.02 | 0.21 | 0.20 | 96 | 1018.4 |
| 20260831200124 | 69 | 288 | 3.0 | 9.0 | 0.02 | 0.19 | 0.20 | 96 | 1018.3 |
| 20260831195629 | 69 | 288 | 2.0 | 9.0 | 0.02 | 0.20 | 0.19 | 96 | 1018.4 |
| 20260831194902 | 69 | 288 | 2.0 | 7.0 | 0.01 | 0.21 | 0.19 | 96 | 1018.4 |
| 20260831194401 | 68 | 288 | 2.0 | 5.0 | 0.01 | 0.21 | 0.19 | 96 | 1018.4 |
| 20260831194126 | 68 | 288 | 2.0 | 5.0 | 0.00 | 0.21 | 0.18 | 95 | 1018.3 |
| 20260831160941 | 66 | 288 | 2.0 | 4.0 | 0.07 | 0.17 | 0.14 | 96 | 1020.3 |
| 20260831160441 | 66 | 288 | 2.0 | 3.0 | 0.07 | 0.17 | 0.14 | 96 | 1020.3 |
| 20260831155942 | 66 | 288 | 2.0 | 5.0 | 0.08 | 0.17 | 0.14 | 95 | 1020.4 |
| 20260831155441 | 66 | 288 | 1.0 | 5.0 | 0.09 | 0.17 | 0.13 | 95 | 1020.4 |
| 20260831155159 | 66 | 288 | 1.0 | 4.0 | 0.09 | 0.16 | 0.13 | 95 | 1020.4 |
| 20260831154441 | 66 | 288 | 2.0 | 5.0 | 0.09 | 0.16 | 0.13 | 95 | 1020.6 |
| 20260831153940 | 66 | 288 | 1.0 | 7.0 | 0.10 | 0.16 | 0.12 | 95 | 1020.6 |
| 20260831153706 | 66 | 288 | 2.0 | 7.0 | 0.10 | 0.15 | 0.12 | 95 | 1020.3 |
| 20260831153204 | 66 | 288 | 2.0 | 7.0 | 0.10 | 0.15 | 0.11 | 95 | 1020.2 |
| 20260831152440 | 66 | 288 | 2.0 | 9.0 | 0.09 | 0.13 | 0.10 | 95 | 1020.0 |
| 20260831151941 | 66 | 288 | 2.0 | 9.0 | 0.08 | 0.12 | 0.09 | 95 | 1020.0 |
| 20260831151441 | 66 | 288 | 3.0 | 7.0 | 0.08 | 0.11 | 0.08 | 95 | 1020.0 |
| 20260831151208 | 66 | 288 | 3.0 | 5.0 | 0.07 | 0.10 | 0.07 | 95 | 1020.0 |
| 20260831150440 | 66 | 288 | 1.0 | 5.0 | 0.07 | 0.10 | 0.06 | 95 | 1020.1 |
| 20260831145942 | 66 | 288 | 0.0 | 3.0 | 0.06 | 0.09 | 0.06 | 95 | 1020.3 |
| 20260831145703 | 67 | 288 | 0.0 | 3.0 | 0.05 | 0.08 | 0.05 | 95 | 1020.3 |
| 20260831144941 | 67 | 288 | 0.0 | 1.0 | 0.04 | 0.07 | 0.04 | 95 | 1020.4 |
| 20260831144440 | 67 | 288 | 0.0 | 3.0 | 0.04 | 0.07 | 0.03 | 95 | 1020.3 |
| 20260831143941 | 67 | 288 | 0.0 | 3.0 | 0.03 | 0.06 | 0.03 | 95 | 1020.3 |
| 20260831143440 | 67 | 288 | 1.0 | 4.0 | 0.02 | 0.05 | 0.02 | 95 | 1020.4 |
| 20260831142940 | 66 | 288 | 1.0 | 4.0 | 0.02 | 0.05 | 0.02 | 95 | 1020.3 |
| 20260831142441 | 66 | 288 | 2.0 | 10.0 | 0.01 | 0.04 | 0.01 | 95 | 1020.1 |
| 20260831141940 | 66 | 288 | 2.0 | 10.0 | 0.01 | 0.04 | 0.01 | 95 | 1020.0 |
| 20260831141440 | 66 | 288 | 2.0 | 5.0 | 0.00 | 0.03 | 0.00 | 96 | 1019.9 |
| 20260831140942 | 66 | 288 | 2.0 | 7.0 | 0.00 | 0.03 | 0.00 | 96 | 1019.8 |
| 20260831140440 | 66 | 288 | 2.0 | 8.0 | 0.00 | 0.03 | 0.00 | 96 | 1019.8 |
| 20260831135940 | 66 | 288 | 2.0 | 8.0 | 0.00 | 0.03 | 0.00 | 96 | 1019.9 |
| 20260831135441 | 66 | 288 | 1.0 | 5.0 | 0.00 | 0.03 | 0.00 | 97 | 1020.1 |
| 20260831134941 | 66 | 288 | 1.0 | 4.0 | 0.00 | 0.03 | 0.00 | 97 | 1020.1 |
| 20260831134441 | 66 | 288 | 2.0 | 4.0 | 0.00 | 0.03 | 0.00 | 97 | 1020.3 |
| 20260831133940 | 66 | 288 | 1.0 | 3.0 | 0.00 | 0.03 | 0.00 | 97 | 1020.4 |
| 20260831133440 | 66 | 288 | 0.0 | 3.0 | 0.00 | 0.03 | 0.00 | 98 | 1020.2 |
| 20260831132940 | 65 | 288 | 1.0 | 5.0 | 0.00 | 0.03 | 0.00 | 98 | 1020.0 |
| 20260831132441 | 65 | 288 | 2.0 | 5.0 | 0.00 | 0.03 | 0.00 | 98 | 1020.0 |
| 20260831131941 | 65 | 288 | 2.0 | 5.0 | 0.00 | 0.03 | 0.00 | 98 | 1020.1 |
| 20260831131440 | 65 | 288 | 3.0 | 5.0 | 0.00 | 0.03 | 0.00 | 98 | 1020.0 |
| 20260831130940 | 65 | 288 | 2.0 | 8.0 | 0.00 | 0.03 | 0.00 | 98 | 1020.0 |
| 20260831130441 | 65 | 288 | 2.0 | 8.0 | 0.00 | 0.03 | 0.00 | 98 | 1020.1 |
| 20260831125940 | 65 | 288 | 2.0 | 7.0 | 0.00 | 0.03 | 0.00 | 98 | 1020.3 |
| 20260831125700 | 64 | 288 | 2.0 | 7.0 | 0.00 | 0.03 | 0.00 | 99 | 1020.1 |
| 20260831125202 | 64 | 288 | 1.0 | 3.0 | 0.00 | 0.03 | 0.00 | 98 | 1020.1 |
| 20260831124440 | 64 | 288 | 1.0 | 3.0 | 0.00 | 0.03 | 0.00 | 98 | 1020.3 |
| 20260831123940 | 63 | 288 | 1.0 | 3.0 | 0.00 | 0.03 | 0.00 | 98 | 1020.6 |
| 20260831123441 | 63 | 288 | 1.0 | 3.0 | 0.00 | 0.03 | 0.00 | 98 | 1020.4 |
| 20260831122940 | 63 | 288 | 1.0 | 3.0 | 0.00 | 0.03 | 0.00 | 98 | 1020.4 |
| 20260831121940 | 62 | 288 | 0.0 | 0.0 | 0.00 | 0.03 | 0.00 | 98 | 1020.4 |
| 20260831121705 | 62 | 288 | 0.0 | 1.0 | 0.00 | 0.03 | 0.00 | 98 | 1020.4 |
| 20260831120941 | 62 | 288 | 0.0 | 2.0 | 0.00 | 0.03 | 0.00 | 98 | 1020.4 |
| 20260831120657 | 62 | 288 | 0.0 | 2.0 | 0.00 | 0.03 | 0.00 | 98 | 1020.4 |
| 20260831115940 | 62 | 288 | 0.0 | 2.0 | 0.00 | 0.03 | 0.00 | 98 | 1020.6 |
| 20260831115441 | 62 | 288 | 0.0 | 0.0 | 0.00 | 0.03 | 0.00 | 98 | 1020.7 |
| 20260831114940 | 62 | 288 | 0.0 | 2.0 | 0.00 | 0.03 | 0.00 | 98 | 1020.6 |
| 20260831114441 | 62 | 288 | 0.0 | 2.0 | 0.00 | 0.03 | 0.00 | 98 | 1020.6 |
| 20260831113940 | 61 | 288 | 0.0 | 1.0 | 0.00 | 0.03 | 0.00 | 98 | 1020.7 |
| 20260831113440 | 61 | 288 | 0.0 | 1.0 | 0.00 | 0.03 | 0.00 | 98 | 1020.7 |
| 20260831112941 | 61 | 288 | 0.0 | 0.0 | 0.00 | 0.03 | 0.00 | 98 | 1020.7 |
| 20260831112440 | 61 | 288 | 0.0 | 1.0 | 0.00 | 0.03 | 0.00 | 98 | 1020.6 |
| 20260831111941 | 61 | 288 | 0.0 | 1.0 | 0.00 | 0.03 | 0.00 | 98 | 1020.4 |
| 20260831111441 | 61 | 288 | 0.0 | 1.0 | 0.00 | 0.03 | 0.00 | 98 | 1020.6 |
| 20260831110940 | 61 | 288 | 0.0 | 2.0 | 0.00 | 0.03 | 0.00 | 98 | 1020.6 |
| 20260831110704 | 61 | 288 | 1.0 | 3.0 | 0.00 | 0.03 | 0.00 | 98 | 1020.4 |
| 20260831105936 | 61 | 288 | 1.0 | 3.0 | 0.00 | 0.03 | 0.00 | 98 | 1020.3 |
| 20260831105438 | 61 | 288 | 1.0 | 4.0 | 0.00 | 0.03 | 0.00 | 98 | 1020.6 |
| 20260831104936 | 61 | 288 | 1.0 | 4.0 | 0.00 | 0.03 | 0.00 | 98 | 1020.4 |
| 20260831104439 | 61 | 288 | 0.0 | 0.0 | 0.00 | 0.03 | 0.00 | 98 | 1020.4 |
| 20260831103937 | 61 | 288 | 0.0 | 0.0 | 0.00 | 0.03 | 0.00 | 98 | 1020.4 |
| 20260831103437 | 61 | 288 | 0.0 | 2.0 | 0.00 | 0.03 | 0.00 | 98 | 1020.3 |
| 20260831103155 | 61 | 288 | 0.0 | 2.0 | 0.00 | 0.03 | 0.00 | 98 | 1020.3 |
| 20260831102437 | 61 | 288 | 0.0 | 1.0 | 0.00 | 0.03 | 0.00 | 98 | 1020.3 |
| 20260831101936 | 61 | 288 | 0.0 | 2.0 | 0.00 | 0.03 | 0.00 | 98 | 1020.3 |
| 20260831101437 | 61 | 288 | 1.0 | 2.0 | 0.00 | 0.03 | 0.00 | 98 | 1020.2 |
| 20260831100936 | 61 | 288 | 0.0 | 3.0 | 0.00 | 0.03 | 0.00 | 98 | 1020.1 |
| 20260831100436 | 61 | 288 | 1.0 | 4.0 | 0.00 | 0.03 | 0.00 | 98 | 1020.3 |
| 20260831095937 | 61 | 288 | 1.0 | 4.0 | 0.00 | 0.03 | 0.00 | 98 | 1020.1 |
| 20260831095436 | 61 | 288 | 0.0 | 3.0 | 0.00 | 0.03 | 0.00 | 98 | 1020.2 |
| 20260831094936 | 61 | 288 | 1.0 | 3.0 | 0.00 | 0.03 | 0.00 | 98 | 1020.1 |
| 20260831094436 | 61 | 288 | 1.0 | 3.0 | 0.00 | 0.03 | 0.00 | 98 | 1020.1 |
| 20260831093937 | 61 | 288 | 0.0 | 3.0 | 0.00 | 0.03 | 0.00 | 98 | 1020.1 |
| 20260831093437 | 60 | 288 | 0.0 | 2.0 | 0.00 | 0.03 | 0.00 | 98 | 1020.1 |
| 20260831092936 | 60 | 288 | 1.0 | 4.0 | 0.00 | 0.03 | 0.00 | 98 | 1020.1 |
| 20260831092437 | 60 | 288 | 1.0 | 4.0 | 0.00 | 0.03 | 0.00 | 98 | 1020.1 |
| 20260831091936 | 60 | 288 | 1.0 | 3.0 | 0.00 | 0.03 | 0.00 | 98 | 1020.0 |
| 20260831091436 | 61 | 288 | 1.0 | 3.0 | 0.00 | 0.03 | 0.00 | 98 | 1020.1 |
| 20260831090937 | 61 | 288 | 1.0 | 3.0 | 0.00 | 0.03 | 0.00 | 98 | 1020.1 |
| 20260831090437 | 61 | 288 | 1.0 | 3.0 | 0.00 | 0.03 | 0.00 | 98 | 1020.3 |
| 20260831085936 | 61 | 288 | 1.0 | 3.0 | 0.00 | 0.03 | 0.00 | 98 | 1020.2 |
| 20260831085436 | 61 | 288 | 1.0 | 3.0 | 0.00 | 0.03 | 0.00 | 98 | 1020.4 |
| 20260831084936 | 61 | 288 | 1.0 | 3.0 | 0.00 | 0.03 | 0.00 | 98 | 1020.3 |
| 20260831084438 | 60 | 288 | 0.0 | 2.0 | 0.00 | 0.03 | 0.00 | 98 | 1020.2 |
| 20260831083936 | 60 | 288 | 0.0 | 2.0 | 0.00 | 0.03 | 0.00 | 98 | 1020.3 |
| 20260831083436 | 60 | 288 | 0.0 | 2.0 | 0.00 | 0.03 | 0.00 | 97 | 1020.3 |
| 20260831082937 | 61 | 288 | 0.0 | 1.0 | 0.00 | 0.03 | 0.00 | 97 | 1020.3 |
| 20260831082436 | 61 | 288 | 0.0 | 3.0 | 0.00 | 0.03 | 0.00 | 97 | 1020.3 |
| 20260831081937 | 61 | 288 | 0.0 | 3.0 | 0.00 | 0.03 | 0.00 | 97 | 1020.3 |
| 20260831081436 | 61 | 288 | 0.0 | 2.0 | 0.00 | 0.03 | 0.00 | 98 | 1020.4 |
| 20260831080936 | 61 | 288 | 0.0 | 2.0 | 0.00 | 0.03 | 0.00 | 98 | 1020.3 |
| 20260831080656 | 61 | 288 | 0.0 | 2.0 | 0.00 | 0.03 | 0.00 | 98 | 1020.3 |
| 20260831075656 | 61 | 288 | 2.0 | 3.0 | 0.00 | 0.03 | 0.00 | 98 | 1020.3 |
| 20260831074936 | 61 | 288 | 1.0 | 3.0 | 0.00 | 0.03 | 0.00 | 98 | 1020.3 |
| 20260831074436 | 61 | 288 | 1.0 | 3.0 | 0.00 | 0.03 | 0.00 | 98 | 1020.2 |
| 20260831073935 | 61 | 288 | 0.0 | 3.0 | 0.00 | 0.03 | 0.00 | 98 | 1020.3 |
| 20260831073654 | 61 | 288 | 0.0 | 2.0 | 0.00 | 0.03 | 0.00 | 98 | 1020.3 |
| 20260831072936 | 61 | 288 | 0.0 | 2.0 | 0.00 | 0.03 | 0.00 | 98 | 1020.2 |
| 20260831072436 | 61 | 288 | 0.0 | 2.0 | 0.00 | 0.03 | 0.00 | 98 | 1020.3 |
| 20260831071936 | 61 | 288 | 0.0 | 2.0 | 0.00 | 0.03 | 0.00 | 98 | 1020.3 |
| 20260831071656 | 61 | 288 | 1.0 | 2.0 | 0.00 | 0.03 | 0.00 | 98 | 1020.3 |
| 20260831071158 | 61 | 288 | 1.0 | 2.0 | 0.00 | 0.03 | 0.00 | 98 | 1020.3 |
| 20260831070435 | 61 | 288 | 1.0 | 4.0 | 0.00 | 0.03 | 0.00 | 98 | 1020.3 |
| 20260831065936 | 61 | 288 | 1.0 | 4.0 | 0.00 | 0.03 | 0.00 | 98 | 1020.3 |
| 20260831065437 | 60 | 288 | 1.0 | 2.0 | 0.00 | 0.03 | 0.00 | 97 | 1020.3 |
| 20260831064936 | 60 | 288 | 1.0 | 3.0 | 0.00 | 0.03 | 0.00 | 98 | 1020.4 |
| 20260831064435 | 60 | 288 | 0.0 | 3.0 | 0.00 | 0.03 | 0.00 | 97 | 1020.4 |
| 20260831063936 | 60 | 288 | 0.0 | 0.0 | 0.00 | 0.03 | 0.00 | 97 | 1020.4 |
| 20260831063436 | 60 | 288 | 0.0 | 0.0 | 0.00 | 0.03 | 0.00 | 97 | 1020.3 |
| 20260831062936 | 60 | 288 | 0.0 | 0.0 | 0.00 | 0.03 | 0.00 | 97 | 1020.4 |
| 20260831062436 | 60 | 288 | 0.0 | 0.0 | 0.00 | 0.03 | 0.00 | 97 | 1020.4 |
| 20260831061936 | 60 | 288 | 0.0 | 0.0 | 0.00 | 0.03 | 0.00 | 97 | 1020.4 |
| 20260831061437 | 60 | 288 | 0.0 | 0.0 | 0.00 | 0.03 | 0.00 | 97 | 1020.4 |
| 20260831060936 | 60 | 288 | 0.0 | 0.0 | 0.00 | 0.03 | 0.00 | 97 | 1020.4 |
| 20260831060436 | 60 | 288 | 0.0 | 0.0 | 0.00 | 0.03 | 0.00 | 97 | 1020.3 |
| 20260831055936 | 61 | 288 | 0.0 | 0.0 | 0.00 | 0.03 | 0.00 | 97 | 1020.4 |
| 20260831055435 | 61 | 288 | 0.0 | 0.0 | 0.00 | 0.03 | 0.00 | 97 | 1020.6 |
| 20260831054936 | 61 | 288 | 0.0 | 0.0 | 0.00 | 0.03 | 0.00 | 97 | 1020.7 |
| 20260831054437 | 61 | 288 | 0.0 | 0.0 | 0.00 | 0.03 | 0.00 | 97 | 1020.7 |
| 20260831053935 | 61 | 288 | 0.0 | 0.0 | 0.00 | 0.03 | 0.00 | 97 | 1020.6 |
| 20260831053436 | 61 | 288 | 0.0 | 0.0 | 0.00 | 0.03 | 0.00 | 97 | 1020.7 |
| 20260831052937 | 61 | 288 | 0.0 | 0.0 | 0.00 | 0.03 | 0.00 | 97 | 1020.7 |
| 20260831052700 | 61 | 288 | 0.0 | 0.0 | 0.00 | 0.03 | 0.00 | 97 | 1020.7 |
| 20260831051936 | 61 | 288 | 0.0 | 0.0 | 0.00 | 0.03 | 0.00 | 97 | 1020.8 |
| 20260831051436 | 62 | 288 | 0.0 | 0.0 | 0.00 | 0.03 | 0.00 | 97 | 1020.8 |
| 20260831050936 | 62 | 288 | 0.0 | 0.0 | 0.00 | 0.03 | 0.00 | 97 | 1021.0 |
| 20260831050435 | 62 | 288 | 0.0 | 0.0 | 0.00 | 0.03 | 0.00 | 97 | 1021.0 |
| 20260831045935 | 62 | 288 | 0.0 | 0.0 | 0.00 | 0.03 | 0.00 | 97 | 1020.9 |
| 20260831045704 | 62 | 288 | 0.0 | 0.0 | 0.00 | 0.03 | 0.00 | 97 | 1021.1 |
| 20260831044936 | 62 | 288 | 0.0 | 0.0 | 0.00 | 0.03 | 0.00 | 97 | 1021.0 |
| 20260831044436 | 62 | 288 | 0.0 | 0.0 | 0.00 | 0.03 | 0.00 | 97 | 1021.0 |
| 20260831043935 | 61 | 288 | 0.0 | 0.0 | 0.00 | 0.03 | 0.00 | 97 | 1021.0 |
| 20260831043436 | 61 | 288 | 0.0 | 0.0 | 0.00 | 0.03 | 0.00 | 97 | 1021.0 |
| 20260831042936 | 61 | 288 | 0.0 | 0.0 | 0.00 | 0.03 | 0.00 | 96 | 1021.1 |
| 20260831042435 | 61 | 288 | 0.0 | 0.0 | 0.00 | 0.03 | 0.00 | 96 | 1021.0 |
| 20260831042157 | 61 | 288 | 0.0 | 0.0 | 0.00 | 0.03 | 0.00 | 96 | 1021.0 |
| 20260831041436 | 61 | 288 | 0.0 | 0.0 | 0.00 | 0.03 | 0.00 | 96 | 1021.0 |
| 20260831040935 | 61 | 288 | 0.0 | 0.0 | 0.00 | 0.03 | 0.00 | 96 | 1021.0 |
| 20260831040439 | 61 | 288 | 0.0 | 0.0 | 0.00 | 0.03 | 0.00 | 96 | 1021.0 |
| 20260831035935 | 60 | 288 | 0.0 | 0.0 | 0.00 | 0.03 | 0.03 | 96 | 1021.0 |
| 20260831035655 | 60 | 288 | 0.0 | 0.0 | 0.00 | 0.03 | 0.03 | 96 | 1020.9 |
| 20260831034936 | 60 | 288 | 0.0 | 0.0 | 0.00 | 0.03 | 0.03 | 95 | 1021.0 |
| 20260831034436 | 61 | 288 | 0.0 | 0.0 | 0.00 | 0.03 | 0.03 | 95 | 1021.1 |
| 20260831033936 | 61 | 288 | 0.0 | 0.0 | 0.00 | 0.03 | 0.03 | 95 | 1021.1 |
| 20260831033435 | 61 | 288 | 0.0 | 0.0 | 0.00 | 0.03 | 0.03 | 95 | 1021.1 |
| 20260831032935 | 61 | 288 | 0.0 | 0.0 | 0.00 | 0.03 | 0.03 | 95 | 1020.8 |
| 20260831032436 | 61 | 288 | 0.0 | 0.0 | 0.00 | 0.03 | 0.03 | 95 | 1020.9 |
| 20260831031935 | 61 | 288 | 0.0 | 0.0 | 0.00 | 0.03 | 0.03 | 95 | 1020.9 |
| 20260831031436 | 62 | 288 | 0.0 | 0.0 | 0.00 | 0.03 | 0.03 | 95 | 1020.8 |
| 20260831030936 | 62 | 288 | 0.0 | 0.0 | 0.00 | 0.03 | 0.03 | 95 | 1020.8 |
| 20260831030435 | 62 | 288 | 0.0 | 0.0 | 0.00 | 0.03 | 0.03 | 95 | 1020.8 |
| 20260831025935 | 62 | 288 | 0.0 | 0.0 | 0.00 | 0.03 | 0.03 | 95 | 1020.9 |
| 20260831025436 | 62 | 288 | 0.0 | 0.0 | 0.00 | 0.03 | 0.03 | 95 | 1020.8 |
| 20260831025159 | 62 | 288 | 0.0 | 0.0 | 0.00 | 0.03 | 0.03 | 95 | 1021.0 |
| 20260831024435 | 62 | 288 | 0.0 | 0.0 | 0.00 | 0.03 | 0.03 | 95 | 1020.9 |
| 20260831023936 | 62 | 288 | 0.0 | 0.0 | 0.00 | 0.03 | 0.03 | 95 | 1020.9 |
| 20260831023436 | 62 | 288 | 0.0 | 0.0 | 0.00 | 0.03 | 0.03 | 94 | 1021.0 |
| 20260831022935 | 63 | 288 | 0.0 | 0.0 | 0.00 | 0.03 | 0.03 | 94 | 1020.9 |
| 20260831022435 | 63 | 288 | 0.0 | 0.0 | 0.00 | 0.03 | 0.03 | 95 | 1020.9 |
| 20260831021936 | 63 | 288 | 0.0 | 0.0 | 0.00 | 0.03 | 0.03 | 94 | 1020.9 |
| 20260831021436 | 63 | 288 | 0.0 | 0.0 | 0.00 | 0.03 | 0.03 | 94 | 1021.0 |
| 20260831021203 | 63 | 288 | 0.0 | 0.0 | 0.00 | 0.03 | 0.03 | 94 | 1020.9 |
| 20260831020435 | 63 | 288 | 0.0 | 0.0 | 0.00 | 0.03 | 0.03 | 94 | 1021.0 |
| 20260831015938 | 63 | 288 | 0.0 | 0.0 | 0.00 | 0.03 | 0.03 | 94 | 1021.0 |
| 20260831015436 | 64 | 288 | 0.0 | 0.0 | 0.00 | 0.03 | 0.03 | 94 | 1020.9 |
| 20260831014936 | 64 | 288 | 0.0 | 0.0 | 0.00 | 0.03 | 0.03 | 94 | 1021.1 |
| 20260831014436 | 64 | 288 | 0.0 | 0.0 | 0.00 | 0.03 | 0.03 | 94 | 1021.1 |
| 20260831013935 | 64 | 288 | 0.0 | 0.0 | 0.00 | 0.03 | 0.03 | 94 | 1021.2 |
| 20260831013435 | 64 | 288 | 0.0 | 0.0 | 0.00 | 0.03 | 0.03 | 94 | 1021.3 |
| 20260831012936 | 64 | 288 | 0.0 | 0.0 | 0.00 | 0.03 | 0.03 | 94 | 1021.3 |
| 20260831012436 | 64 | 288 | 0.0 | 0.0 | 0.00 | 0.03 | 0.03 | 94 | 1021.2 |
| 20260831011935 | 65 | 288 | 0.0 | 0.0 | 0.00 | 0.03 | 0.03 | 94 | 1021.3 |
| 20260831011435 | 65 | 288 | 0.0 | 0.0 | 0.00 | 0.03 | 0.03 | 94 | 1021.1 |
| 20260831010936 | 65 | 288 | 0.0 | 0.0 | 0.00 | 0.03 | 0.03 | 94 | 1021.1 |
| 20260831010433 | 65 | 288 | 0.0 | 0.0 | 0.00 | 0.03 | 0.03 | 94 | 1020.9 |
| 20260831010156 | 65 | 288 | 0.0 | 0.0 | 0.00 | 0.03 | 0.03 | 93 | 1021.0 |
| 20260831005649 | 65 | 288 | 0.0 | 0.0 | 0.00 | 0.03 | 0.03 | 94 | 1020.9 |
| 20260831004431 | 65 | 288 | 0.0 | 0.0 | 0.00 | 0.03 | 0.03 | 94 | 1020.8 |
| 20260831004154 | 66 | 288 | 0.0 | 0.0 | 0.00 | 0.03 | 0.03 | 94 | 1020.6 |
| 20260831003654 | 66 | 288 | 0.0 | 0.0 | 0.00 | 0.03 | 0.03 | 94 | 1020.3 |
| 20260831002931 | 66 | 288 | 0.0 | 0.0 | 0.00 | 0.03 | 0.03 | 94 | 1020.2 |
| 20260831002652 | 66 | 288 | 0.0 | 0.0 | 0.00 | 0.03 | 0.03 | 94 | 1020.3 |
| 20260831001931 | 66 | 288 | 0.0 | 0.0 | 0.00 | 0.03 | 0.03 | 94 | 1020.2 |
| 20260831001152 | 66 | 288 | 0.0 | 0.0 | 0.00 | 0.03 | 0.03 | 94 | 1020.1 |
| 20260831000432 | 66 | 288 | 0.0 | 0.0 | 0.00 | 0.03 | 0.03 | 94 | 1019.9 |
| 20260830235931 | 66 | 288 | 0.0 | 0.0 | 0.00 | 0.03 | 0.03 | 94 | 1019.8 |
| 20260830235431 | 66 | 288 | 0.0 | 0.0 | 0.00 | 0.03 | 0.03 | 93 | 1019.8 |
| 20260830235158 | 67 | 288 | 0.0 | 1.0 | 0.00 | 0.03 | 0.03 | 93 | 1019.6 |
| 20260830234431 | 67 | 288 | 1.0 | 4.0 | 0.00 | 0.03 | 0.03 | 93 | 1019.7 |
| 20260830233932 | 67 | 288 | 1.0 | 4.0 | 0.00 | 0.03 | 0.03 | 94 | 1019.7 |
| 20260830233431 | 67 | 288 | 1.0 | 3.0 | 0.00 | 0.03 | 0.03 | 94 | 1019.7 |
| 20260830232931 | 67 | 288 | 0.0 | 3.0 | 0.00 | 0.03 | 0.03 | 94 | 1019.6 |
| 20260830232431 | 67 | 288 | 1.0 | 3.0 | 0.00 | 0.03 | 0.03 | 94 | 1019.6 |
| 20260830231931 | 67 | 288 | 1.0 | 4.0 | 0.00 | 0.03 | 0.03 | 94 | 1019.7 |
| 20260830231432 | 67 | 288 | 1.0 | 4.0 | 0.00 | 0.03 | 0.03 | 94 | 1019.7 |
| 20260830231152 | 67 | 288 | 1.0 | 3.0 | 0.00 | 0.03 | 0.03 | 94 | 1019.7 |
| 20260830230431 | 67 | 288 | 0.0 | 2.0 | 0.00 | 0.03 | 0.03 | 94 | 1019.7 |